Time;durP1;ratioP1;P1;durP2;ratioP2;P2;SDS_P1;SDS_P2;PMS_P1;PMS_P2;Temp;Humidity;BMP_temperature;BMP_pressure;BME280_temperature;BME280_humidity;BME280_pressure;Samples;Min_cycle;Max_cycle;Signal;HPM_P1;HPM_P2
2021/12/21 00:00:51;;;;;;;14.85;7.20;;;;;;;0.17;100.00;102686.09;5225815;28;20030;-69
2021/12/21 00:03:24;;;;;;;17.45;8.02;;;;;;;0.19;100.00;102685.22;5223035;28;20033;-69
2021/12/21 00:05:55;;;;;;;17.65;7.90;;;;;;;0.17;100.00;102692.09;5223557;28;20053;-69
2021/12/21 00:08:26;;;;;;;13.93;7.28;;;;;;;0.17;100.00;102684.38;5225251;28;20053;-69
2021/12/21 00:10:59;;;;;;;17.75;7.82;;;;;;;0.17;100.00;102688.69;5221666;28;20502;-69
2021/12/21 00:18:46;;;;;;;20.52;9.25;;;;;;;0.14;100.00;102686.97;5224512;28;20401;-69
2021/12/21 00:21:34;;;;;;;20.75;10.27;;;;;;;0.09;100.00;102681.03;5223566;28;20036;-70
2021/12/21 00:24:18;;;;;;;18.00;8.57;;;;;;;0.05;100.00;102674.22;5224574;28;20352;-70
2021/12/21 00:26:49;;;;;;;19.08;8.73;;;;;;;0.06;100.00;102675.91;5225456;28;20040;-69
2021/12/21 00:29:21;;;;;;;15.52;8.02;;;;;;;0.03;100.00;102675.09;5222902;28;20028;-70
2021/12/21 00:31:52;;;;;;;23.42;9.25;;;;;;;-0.01;100.00;102671.69;5224694;28;20048;-69
2021/12/21 00:34:25;;;;;;;16.23;8.35;;;;;;;0.05;100.00;102669.06;5225033;28;20096;-69
2021/12/21 00:36:56;;;;;;;19.55;9.88;;;;;;;-0.01;100.00;102662.22;5222280;28;20040;-69
2021/12/21 00:39:27;;;;;;;21.88;9.15;;;;;;;-0.07;100.00;102667.47;5203436;28;20038;-69
2021/12/21 00:42:01;;;;;;;20.05;8.68;;;;;;;-0.06;100.00;102669.19;5221215;28;20061;-69
2021/12/21 00:44:32;;;;;;;19.42;8.57;;;;;;;-0.06;100.00;102668.31;5224358;28;20033;-69
2021/12/21 00:47:04;;;;;;;14.10;7.72;;;;;;;-0.10;100.00;102658.94;5225902;28;20576;-69
2021/12/21 00:49:37;;;;;;;18.80;8.73;;;;;;;-0.17;100.00;102659.84;5223318;28;20041;-70
2021/12/21 00:52:08;;;;;;;16.30;8.68;;;;;;;-0.15;100.00;102658.09;5221859;28;20485;-69
2021/12/21 00:54:40;;;;;;;15.57;8.20;;;;;;;-0.18;100.00;102650.44;5221038;28;20038;-69
2021/12/21 00:57:11;;;;;;;18.17;7.90;;;;;;;-0.21;100.00;102659.03;5220329;28;20403;-69
2021/12/21 00:59:43;;;;;;;16.63;8.55;;;;;;;-0.25;100.00;102662.53;5219732;28;20034;-69
2021/12/21 01:02:14;;;;;;;19.30;8.68;;;;;;;-0.19;100.00;102661.59;5222411;28;20025;-69
2021/12/21 01:04:48;;;;;;;17.55;7.63;;;;;;;-0.24;100.00;102659.06;5223611;28;20080;-70
2021/12/21 01:07:27;;;;;;;15.68;8.02;;;;;;;-0.30;100.00;102652.28;5221932;28;20433;-69
2021/12/21 01:10:35;;;;;;;17.52;8.50;;;;;;;-0.32;100.00;102658.28;5223056;28;20092;-70
2021/12/21 01:13:13;;;;;;;18.40;8.35;;;;;;;-0.34;100.00;102660.03;5224695;28;20038;-69
2021/12/21 01:16:07;;;;;;;16.60;8.57;;;;;;;-0.32;100.00;102666.88;5223145;28;20040;-70
2021/12/21 01:18:53;;;;;;;17.15;7.60;;;;;;;-0.28;100.00;102663.41;5223432;28;20473;-69
2021/12/21 01:21:29;;;;;;;17.20;7.88;;;;;;;-0.37;100.00;102662.66;5222794;28;20022;-69
2021/12/21 01:24:15;;;;;;;14.32;8.00;;;;;;;-0.45;100.00;102660.16;5224763;28;20091;-69
2021/12/21 01:27:01;;;;;;;20.27;8.32;;;;;;;-0.48;100.00;102670.47;5222045;28;20447;-70
2021/12/21 01:29:43;;;;;;;20.33;8.80;;;;;;;-0.56;100.00;102652.53;5220444;28;20029;-69
2021/12/21 01:32:37;;;;;;;17.92;8.05;;;;;;;-0.57;100.00;102655.97;5222670;28;20025;-72
2021/12/21 01:35:18;;;;;;;16.38;8.20;;;;;;;-0.50;100.00;102657.59;5223756;28;20470;-72
2021/12/21 01:38:06;;;;;;;15.45;7.50;;;;;;;-0.49;100.00;102653.34;5220950;28;20419;-69
2021/12/21 01:41:05;;;;;;;15.50;7.50;;;;;;;-0.55;100.00;102654.22;5220444;28;20033;-69
2021/12/21 01:43:37;;;;;;;15.02;7.35;;;;;;;-0.55;100.00;102653.38;5221524;28;20037;-69
2021/12/21 01:51:48;;;;;;;28.73;7.85;;;;;;;-0.57;100.00;102645.69;5224421;28;20081;-70
2021/12/21 01:54:19;;;;;;;17.38;7.57;;;;;;;-0.61;100.00;102633.69;5222235;28;20546;-70
2021/12/21 01:56:50;;;;;;;15.02;6.85;;;;;;;-0.57;100.00;102639.66;5219950;28;20402;-70
2021/12/21 01:59:22;;;;;;;14.48;7.80;;;;;;;-0.60;100.00;102631.97;5221325;28;20061;-70
2021/12/21 02:01:53;;;;;;;13.45;7.20;;;;;;;-0.59;100.00;102633.69;5220433;28;20029;-70
2021/12/21 02:04:25;;;;;;;17.08;8.07;;;;;;;-0.62;100.00;102641.44;5220359;28;20501;-70
2021/12/21 02:06:56;;;;;;;19.00;8.10;;;;;;;-0.60;100.00;102637.13;5222802;28;20033;-70
2021/12/21 02:09:37;;;;;;;14.55;7.60;;;;;;;-0.62;100.00;102631.97;5211424;28;20116;-70
2021/12/21 02:12:14;;;;;;;16.33;8.10;;;;;;;-0.55;100.00;102628.47;5223371;28;20483;-70
2021/12/21 02:14:57;;;;;;;16.27;7.30;;;;;;;-0.69;100.00;102621.75;5224052;28;20461;-70
2021/12/21 02:18:01;;;;;;;16.75;8.05;;;;;;;-0.63;100.00;102626.84;5222806;28;20124;-70
2021/12/21 02:23:07;;;;;;;18.40;8.10;;;;;;;-0.72;100.00;102622.63;5222530;28;20398;-70
2021/12/21 02:25:59;;;;;;;16.73;7.80;;;;;;;-0.74;100.00;102621.81;5219732;28;20068;-70
2021/12/21 02:31:02;;;;;;;15.05;7.25;;;;;;;-0.72;100.00;102630.34;5219922;28;20037;-70
2021/12/21 02:33:35;;;;;;;20.75;8.40;;;;;;;-0.72;100.00;102625.19;5220839;28;20022;-71
2021/12/21 02:36:06;;;;;;;17.80;7.93;;;;;;;-0.75;100.00;102626.09;5225603;28;20036;-70
2021/12/21 02:38:37;;;;;;;19.58;8.60;;;;;;;-0.67;100.00;102625.19;5218519;28;20292;-69
2021/12/21 02:41:08;;;;;;;17.02;7.22;;;;;;;-0.69;100.00;102619.19;5223154;28;20460;-70
2021/12/21 02:43:40;;;;;;;17.60;7.93;;;;;;;-0.78;100.00;102614.97;5208300;28;20060;-70
2021/12/21 02:46:11;;;;;;;19.00;8.13;;;;;;;-0.79;100.00;102613.28;5223874;28;20030;-70
2021/12/21 02:48:42;;;;;;;18.45;8.40;;;;;;;-0.80;100.00;102622.69;5225526;28;20030;-70
2021/12/21 02:51:14;;;;;;;14.90;7.43;;;;;;;-0.72;100.00;102617.47;5226890;28;20055;-70
2021/12/21 02:53:45;;;;;;;15.32;7.70;;;;;;;-0.78;100.00;102622.69;5209821;28;20120;-70
2021/12/21 02:56:17;;;;;;;15.38;8.27;;;;;;;-0.82;100.00;102615.88;5224777;28;20124;-70
2021/12/21 02:58:49;;;;;;;19.92;8.23;;;;;;;-0.77;100.00;102614.09;5223096;28;20026;-70
2021/12/21 03:01:20;;;;;;;18.33;8.90;;;;;;;-0.86;100.00;102609.91;5223540;28;20446;-70
2021/12/21 03:03:52;;;;;;;17.05;7.80;;;;;;;-0.83;100.00;102603.88;5226460;28;20022;-70
2021/12/21 03:12:11;;;;;;;16.55;7.82;;;;;;;-0.91;100.00;102605.66;5225586;28;20522;-70
2021/12/21 03:14:42;;;;;;;14.73;8.23;;;;;;;-0.88;100.00;102616.78;5223897;28;20052;-69
2021/12/21 03:17:17;;;;;;;17.77;7.95;;;;;;;-0.88;100.00;102618.50;5224569;28;20059;-69
2021/12/21 03:19:49;;;;;;;19.35;8.18;;;;;;;-0.91;100.00;102618.50;5224987;28;20116;-70
2021/12/21 03:22:20;;;;;;;21.33;7.65;;;;;;;-0.92;100.00;102609.09;5224785;28;20022;-70
2021/12/21 03:24:51;;;;;;;16.90;7.55;;;;;;;-0.92;100.00;102604.81;5224905;28;20025;-70
2021/12/21 03:27:23;;;;;;;24.20;8.20;;;;;;;-0.94;100.00;102605.69;5225000;28;20111;-70
2021/12/21 03:29:54;;;;;;;19.75;7.93;;;;;;;-0.99;100.00;102605.72;5225718;28;20526;-71
2021/12/21 03:32:25;;;;;;;22.40;9.20;;;;;;;-1.01;100.00;102603.16;5205910;28;20029;-70
2021/12/21 03:34:56;;;;;;;16.95;8.32;;;;;;;-1.08;100.00;102600.66;5204652;28;20033;-70
2021/12/21 03:37:28;;;;;;;15.70;7.82;;;;;;;-1.08;100.00;102606.66;5224885;28;20491;-70
2021/12/21 03:40:01;;;;;;;21.40;8.57;;;;;;;-1.09;100.00;102584.38;5223245;28;20026;-70
2021/12/21 03:42:33;;;;;;;15.80;7.18;;;;;;;-1.06;100.00;102598.91;5225105;28;20116;-70
2021/12/21 03:45:05;;;;;;;17.95;8.13;;;;;;;-1.07;100.00;102605.78;5221994;28;20083;-70
2021/12/21 03:47:36;;;;;;;15.00;7.70;;;;;;;-1.05;100.00;102598.06;5225574;28;20080;-72
2021/12/21 03:50:16;;;;;;;18.42;8.57;;;;;;;-1.05;100.00;102600.66;5223858;28;20053;-70
2021/12/21 03:52:47;;;;;;;13.88;7.05;;;;;;;-1.09;100.00;102592.09;5225556;28;20041;-71
2021/12/21 03:55:18;;;;;;;18.40;8.02;;;;;;;-1.10;100.00;102604.94;5223956;28;20505;-70
2021/12/21 03:57:50;;;;;;;17.00;8.45;;;;;;;-1.09;100.00;102598.97;5222632;28;20026;-69
2021/12/21 04:00:23;;;;;;;17.55;7.85;;;;;;;-1.14;100.00;102598.13;5226358;28;20080;-71
2021/12/21 04:02:55;;;;;;;14.70;7.10;;;;;;;-1.11;100.00;102591.25;5225028;28;20056;-70
2021/12/21 04:05:26;;;;;;;19.27;8.50;;;;;;;-1.24;100.00;102580.22;5224365;28;20022;-70
2021/12/21 04:07:57;;;;;;;19.83;8.15;;;;;;;-1.13;100.00;102592.13;5223702;28;20395;-70
2021/12/21 04:10:28;;;;;;;16.50;8.15;;;;;;;-1.18;100.00;102601.59;5222907;28;20017;-70
2021/12/21 04:13:01;;;;;;;16.52;7.30;;;;;;;-1.27;100.00;102589.66;5221472;28;20034;-70
2021/12/21 04:15:38;;;;;;;16.08;7.68;;;;;;;-1.24;100.00;102590.50;5224876;28;20026;-70
2021/12/21 04:18:11;;;;;;;16.50;8.13;;;;;;;-1.24;100.00;102593.06;5201420;28;20422;-70
2021/12/21 04:20:43;;;;;;;16.48;7.78;;;;;;;-1.20;100.00;102598.19;5199698;28;20383;-70
2021/12/21 04:23:15;;;;;;;18.40;7.57;;;;;;;-1.19;100.00;102599.91;5202178;28;20484;-70
2021/12/21 04:25:47;;;;;;;17.27;8.48;;;;;;;-1.29;100.00;102592.25;5201700;28;20116;-71
2021/12/21 04:28:18;;;;;;;17.13;8.27;;;;;;;-1.22;100.00;102593.03;5203025;28;20121;-70
2021/12/21 04:30:49;;;;;;;15.07;7.65;;;;;;;-1.28;100.00;102593.09;5201169;28;20472;-70
2021/12/21 04:33:22;;;;;;;17.27;8.60;;;;;;;-1.28;100.00;102599.09;5203319;28;20476;-72
2021/12/21 04:35:53;;;;;;;19.23;8.47;;;;;;;-1.34;100.00;102588.00;5203618;28;20037;-70
2021/12/21 04:38:30;;;;;;;20.42;9.13;;;;;;;-1.38;100.00;102592.31;5204113;28;20026;-70
2021/12/21 04:43:39;;;;;;;18.35;7.90;;;;;;;-1.42;100.00;102584.63;5202391;28;20069;-70
2021/12/21 04:46:11;;;;;;;15.10;8.07;;;;;;;-1.32;100.00;102579.41;5201214;28;20026;-69
2021/12/21 04:48:42;;;;;;;16.27;7.68;;;;;;;-1.36;100.00;102587.16;5201938;28;20026;-72
2021/12/21 04:51:14;;;;;;;18.35;8.02;;;;;;;-1.38;100.00;102582.03;5202070;28;20033;-70
2021/12/21 04:53:46;;;;;;;17.48;9.10;;;;;;;-1.33;100.00;102585.41;5204315;28;20029;-70
2021/12/21 04:56:17;;;;;;;17.63;8.55;;;;;;;-1.41;100.00;102582.03;5201247;28;21056;-70
2021/12/21 04:58:48;;;;;;;18.27;7.80;;;;;;;-1.39;100.00;102585.47;5204478;28;20026;-70
2021/12/21 05:01:20;;;;;;;22.08;9.00;;;;;;;-1.41;100.00;102587.19;5198980;28;20036;-72
2021/12/21 05:03:51;;;;;;;16.58;8.38;;;;;;;-1.43;100.00;102582.94;5200624;28;20023;-70
2021/12/21 05:06:22;;;;;;;18.33;8.90;;;;;;;-1.44;100.00;102584.63;5199772;28;20018;-70
2021/12/21 05:09:05;;;;;;;19.52;8.88;;;;;;;-1.44;100.00;102576.91;5202390;28;20034;-72
2021/12/21 05:11:37;;;;;;;19.05;7.50;;;;;;;-1.50;100.00;102582.13;5202933;28;20029;-70
2021/12/21 05:14:09;;;;;;;19.50;8.60;;;;;;;-1.55;100.00;102589.88;5202350;28;20430;-70
2021/12/21 05:16:40;;;;;;;16.67;7.82;;;;;;;-1.56;100.00;102590.72;5208493;28;20357;-71
2021/12/21 05:19:11;;;;;;;23.77;8.63;;;;;;;-1.54;100.00;102586.44;5223459;28;20029;-70
2021/12/21 05:21:43;;;;;;;19.90;7.60;;;;;;;-1.52;100.00;102586.41;5221758;28;20025;-70
2021/12/21 05:24:14;;;;;;;19.23;8.30;;;;;;;-1.57;100.00;102583.88;5223625;28;20483;-70
2021/12/21 05:26:46;;;;;;;20.63;8.25;;;;;;;-1.53;100.00;102592.41;5221819;28;20033;-70
2021/12/21 05:29:17;;;;;;;21.17;8.50;;;;;;;-1.58;100.00;102583.88;5224138;28;20030;-70
2021/12/21 05:31:50;;;;;;;19.60;9.75;;;;;;;-1.56;100.00;102588.13;5219208;28;20025;-70
2021/12/21 05:34:21;;;;;;;16.45;7.35;;;;;;;-1.60;100.00;102586.44;5206500;28;20033;-70
2021/12/21 05:36:52;;;;;;;15.65;8.13;;;;;;;-1.58;100.00;102589.03;5223264;28;20040;-70
2021/12/21 05:39:27;;;;;;;15.95;8.20;;;;;;;-1.67;100.00;102583.94;5221474;28;20030;-69
2021/12/21 05:41:58;;;;;;;18.48;8.65;;;;;;;-1.71;100.00;102591.66;5220977;28;20025;-70
2021/12/21 05:44:30;;;;;;;17.70;8.10;;;;;;;-1.69;100.00;102585.66;5222694;28;20028;-69
2021/12/21 05:47:01;;;;;;;22.13;9.57;;;;;;;-1.73;100.00;102580.53;5221848;28;20028;-69
2021/12/21 05:49:34;;;;;;;18.55;8.48;;;;;;;-1.65;100.00;102595.06;5225013;28;20115;-69
2021/12/21 05:52:06;;;;;;;17.67;8.60;;;;;;;-1.66;100.00;102599.34;5214684;28;20033;-69
2021/12/21 05:54:37;;;;;;;19.35;8.52;;;;;;;-1.72;100.00;102592.53;5221744;28;20053;-69
2021/12/21 05:57:08;;;;;;;16.95;8.13;;;;;;;-1.68;100.00;102595.94;5222369;28;20053;-70
2021/12/21 05:59:40;;;;;;;23.42;10.00;;;;;;;-1.66;100.00;102591.66;5223795;28;20114;-70
2021/12/21 06:02:11;;;;;;;22.90;9.00;;;;;;;-1.66;100.00;102590.78;5221085;28;20039;-69
2021/12/21 06:04:44;;;;;;;18.00;9.27;;;;;;;-1.62;100.00;102590.75;5222679;28;20025;-69
2021/12/21 06:07:15;;;;;;;20.42;8.57;;;;;;;-1.62;100.00;102589.91;5221292;28;20033;-69
2021/12/21 06:09:48;;;;;;;22.90;8.57;;;;;;;-1.72;100.00;102584.81;5221671;28;20390;-69
2021/12/21 06:12:39;;;;;;;21.60;9.27;;;;;;;-1.68;100.00;102583.06;5223006;28;20030;-69
2021/12/21 06:23:57;;;;;;;17.77;8.95;;;;;;;-1.72;100.00;102592.53;5226758;28;20037;-69
2021/12/21 06:26:22;;;;;;;22.85;9.57;;;;;;;-1.74;100.00;102588.28;5225418;28;20034;-69
2021/12/21 06:28:54;;;;;;;18.85;8.93;;;;;;;-1.73;100.00;102584.84;5223532;28;20403;-69
2021/12/21 06:31:25;;;;;;;21.52;9.30;;;;;;;-1.76;100.00;102588.25;5223775;28;20017;-68
2021/12/21 06:33:57;;;;;;;16.10;8.20;;;;;;;-1.71;100.00;102589.06;5227972;28;20108;-69
2021/12/21 06:36:28;;;;;;;18.20;8.85;;;;;;;-1.78;100.00;102590.00;5225041;28;20026;-69
2021/12/21 06:38:59;;;;;;;20.15;8.93;;;;;;;-1.75;100.00;102581.41;5222767;28;20041;-70
2021/12/21 06:41:31;;;;;;;16.85;8.52;;;;;;;-1.77;100.00;102588.28;5224400;28;20403;-70
2021/12/21 06:44:04;;;;;;;26.08;9.93;;;;;;;-1.76;100.00;102582.28;5225147;28;20040;-69
2021/12/21 06:46:51;;;;;;;17.80;8.32;;;;;;;-1.81;100.00;102582.31;5223943;28;20039;-69
2021/12/21 06:52:13;;;;;;;21.63;9.02;;;;;;;-1.77;100.00;102586.56;5223544;28;20038;-69
2021/12/21 06:54:44;;;;;;;21.80;9.13;;;;;;;-1.77;100.00;102588.28;5220909;28;20759;-70
2021/12/21 06:57:16;;;;;;;25.52;10.40;;;;;;;-1.80;100.00;102588.28;5219809;28;20034;-69
2021/12/21 06:59:47;;;;;;;25.38;9.05;;;;;;;-1.81;100.00;102590.00;5221329;28;20388;-69
2021/12/21 07:02:19;;;;;;;20.70;9.52;;;;;;;-1.88;100.00;102587.47;5222189;28;20047;-69
2021/12/21 07:04:50;;;;;;;18.90;9.55;;;;;;;-1.91;100.00;102587.50;5220610;28;20041;-71
2021/12/21 07:07:22;;;;;;;21.73;9.77;;;;;;;-1.85;100.00;102605.47;5214635;28;20057;-69
2021/12/21 07:10:00;;;;;;;22.83;9.98;;;;;;;-1.90;100.00;102597.75;5221103;28;20029;-69
2021/12/21 07:20:40;;;;;;;21.08;8.85;;;;;;;-1.77;100.00;102607.13;5205780;28;20156;-69
2021/12/21 07:23:11;;;;;;;19.08;8.93;;;;;;;-1.87;100.00;102600.31;5203664;28;20124;-71
2021/12/21 07:25:43;;;;;;;21.08;9.35;;;;;;;-1.86;100.00;102609.72;5216666;28;20127;-69
2021/12/21 07:28:14;;;;;;;18.25;9.15;;;;;;;-1.86;100.00;102607.16;5220781;28;20025;-69
2021/12/21 07:30:49;;;;;;;17.50;9.55;;;;;;;-1.85;100.00;102602.88;5224510;28;20080;-69
2021/12/21 07:33:20;;;;;;;21.63;10.63;;;;;;;-1.89;100.00;102608.91;5222720;28;20038;-69
2021/12/21 07:35:52;;;;;;;17.63;9.15;;;;;;;-1.86;100.00;102604.56;5221961;28;20025;-69
2021/12/21 07:38:25;;;;;;;18.13;9.77;;;;;;;-1.90;100.00;102605.44;5205222;28;20125;-70
2021/12/21 07:40:57;;;;;;;20.88;9.18;;;;;;;-1.84;100.00;102615.72;5225121;28;20362;-69
2021/12/21 07:43:29;;;;;;;23.67;9.98;;;;;;;-1.88;100.00;102616.59;5223644;28;20359;-69
2021/12/21 07:46:00;;;;;;;20.23;10.55;;;;;;;-1.93;100.00;102612.31;5223635;28;20026;-72
2021/12/21 07:48:32;;;;;;;19.05;9.73;;;;;;;-1.88;100.00;102618.31;5224703;28;20014;-71
2021/12/21 07:51:05;;;;;;;18.90;10.18;;;;;;;-1.92;100.00;102609.75;5221005;28;20029;-70
2021/12/21 07:53:36;;;;;;;;;;;;;;;-1.40;100.00;102613.75;5222032;28;20033;-70
2021/12/21 07:56:08;;;;;;;20.52;9.38;;;;;;;-1.86;100.00;102617.41;5225435;28;19913;-69
2021/12/21 07:58:39;;;;;;;19.05;9.45;;;;;;;-1.90;100.00;102620.88;5223963;28;20021;-69
2021/12/21 08:01:11;;;;;;;18.92;9.40;;;;;;;-1.90;100.00;102612.31;5222956;28;20021;-69
2021/12/21 08:03:43;;;;;;;17.42;8.57;;;;;;;-1.89;100.00;102622.59;5223618;28;20060;-70
2021/12/21 08:06:15;;;;;;;20.95;9.63;;;;;;;-1.88;100.00;102624.28;5222919;28;20021;-69
2021/12/21 08:08:48;;;;;;;21.10;9.77;;;;;;;-1.86;100.00;102626.84;5205933;28;20030;-70
2021/12/21 08:12:12;;;;;;;18.00;10.25;;;;;;;-1.91;100.00;102631.16;5223285;28;20017;-69
2021/12/21 08:14:20;;;;;;;22.48;9.88;;;;;;;-1.91;100.00;102629.44;5223380;28;20041;-71
2021/12/21 08:16:51;;;;;;;21.25;9.85;;;;;;;-1.94;100.00;102621.75;5223532;28;20379;-70
2021/12/21 08:19:23;;;;;;;22.13;9.93;;;;;;;-2.04;100.00;102617.53;5222571;28;20044;-70
2021/12/21 08:21:54;;;;;;;22.33;11.05;;;;;;;-1.99;100.00;102624.34;5220680;28;20392;-70
2021/12/21 08:24:25;;;;;;;23.52;10.07;;;;;;;-1.95;100.00;102627.75;5222312;28;20130;-70
2021/12/21 08:26:58;;;;;;;26.23;10.85;;;;;;;-1.92;100.00;102624.31;5221382;28;20037;-70
2021/12/21 08:29:31;;;;;;;22.85;10.98;;;;;;;-1.92;100.00;102624.31;5222524;28;20029;-72
2021/12/21 08:32:02;;;;;;;25.70;10.63;;;;;;;-1.96;100.00;102626.06;5225368;28;20165;-70
2021/12/21 08:34:34;;;;;;;27.65;11.15;;;;;;;-1.98;100.00;102620.06;5224594;28;20147;-70
2021/12/21 08:37:05;;;;;;;22.80;10.95;;;;;;;-1.90;100.00;102622.59;5222262;28;20037;-70
2021/12/21 08:39:39;;;;;;;22.50;11.40;;;;;;;-1.91;100.00;102619.16;5220889;28;20040;-70
2021/12/21 08:42:13;;;;;;;23.50;11.73;;;;;;;-1.79;100.00;102629.38;5223260;28;20152;-70
2021/12/21 08:44:46;;;;;;;24.77;12.23;;;;;;;-1.84;100.00;102613.16;5223104;28;20108;-70
2021/12/21 08:47:21;;;;;;;24.50;10.85;;;;;;;-1.73;100.00;102626.78;5221513;28;20051;-70
2021/12/21 08:49:52;;;;;;;20.13;11.43;;;;;;;-1.69;100.00;102626.78;5223405;28;20651;-70
2021/12/21 08:52:23;;;;;;;18.50;11.10;;;;;;;-1.64;100.00;102628.44;5223903;28;20036;-70
2021/12/21 08:54:54;;;;;;;23.65;11.35;;;;;;;-1.57;100.00;102629.28;5220144;28;20029;-70
2021/12/21 08:57:26;;;;;;;21.45;11.05;;;;;;;-1.57;100.00;102629.28;5223288;28;20561;-70
2021/12/21 08:59:57;;;;;;;24.33;11.45;;;;;;;-1.48;100.00;102621.50;5222199;28;20402;-70
2021/12/21 09:02:33;;;;;;;24.67;13.07;;;;;;;-1.43;100.00;102624.91;5220592;28;20471;-70
2021/12/21 09:05:10;;;;;;;26.13;11.85;;;;;;;-1.38;100.00;102627.44;5223258;28;20033;-70
2021/12/21 09:07:42;;;;;;;25.45;12.05;;;;;;;-1.31;100.00;102629.97;5221803;28;20479;-70
2021/12/21 09:10:16;;;;;;;23.20;11.57;;;;;;;-1.28;100.00;102632.53;5221051;28;20029;-70
2021/12/21 09:12:48;;;;;;;26.52;12.13;;;;;;;-1.24;100.00;102641.94;5220600;28;20037;-70
2021/12/21 09:15:21;;;;;;;23.40;12.90;;;;;;;-1.15;100.00;102629.88;5222375;28;20018;-70
2021/12/21 09:17:53;;;;;;;24.20;12.25;;;;;;;-1.12;100.00;102635.00;5205876;28;20053;-70
2021/12/21 09:20:27;;;;;;;29.50;13.68;;;;;;;-1.03;100.00;102635.75;5218411;28;20029;-70
2021/12/21 09:23:02;;;;;;;28.38;13.70;;;;;;;-0.95;100.00;102627.97;5220193;28;20026;-70
2021/12/21 09:25:33;;;;;;;35.80;13.98;;;;;;;-0.95;100.00;102635.69;5221502;28;20068;-71
2021/12/21 09:28:05;;;;;;;23.30;12.98;;;;;;;-0.91;100.00;102639.97;5222396;28;20441;-70
2021/12/21 09:30:37;;;;;;;24.73;12.68;;;;;;;-0.85;100.00;102629.63;5222312;28;20353;-70
2021/12/21 09:33:08;;;;;;;26.38;13.55;;;;;;;-0.81;100.00;102630.44;5223495;28;20073;-70
2021/12/21 09:35:40;;;;;;;21.38;13.23;;;;;;;-0.79;100.00;102628.72;5221582;28;20577;-70
2021/12/21 09:38:11;;;;;;;23.85;13.63;;;;;;;-0.76;100.00;102632.13;5221057;28;20029;-70
2021/12/21 09:40:43;;;;;;;30.83;13.80;;;;;;;-0.66;100.00;102630.31;5220359;28;20294;-70
2021/12/21 09:43:14;;;;;;;25.70;13.55;;;;;;;-0.71;100.00;102620.94;5221410;28;20483;-70
2021/12/21 09:45:46;;;;;;;25.65;13.63;;;;;;;-0.62;100.00;102625.97;5223812;28;20029;-69
2021/12/21 09:48:17;;;;;;;28.05;13.25;;;;;;;-0.55;100.00;102625.91;5222043;28;20064;-70
2021/12/21 09:50:49;;;;;;;28.33;14.07;;;;;;;-0.56;100.00;102602.75;5221481;28;20421;-70
2021/12/21 09:53:22;;;;;;;28.30;13.00;;;;;;;-0.40;100.00;102626.63;5219223;28;20111;-70
2021/12/21 09:55:53;;;;;;;22.92;13.43;;;;;;;-0.38;100.00;102627.44;5221993;28;20093;-70
2021/12/21 09:58:24;;;;;;;26.52;13.15;;;;;;;-0.35;100.00;102619.69;5219896;28;20026;-70
2021/12/21 10:00:56;;;;;;;23.00;13.18;;;;;;;-0.33;100.00;102618.81;5221229;28;20455;-70
2021/12/21 10:03:27;;;;;;;27.63;13.50;;;;;;;-0.30;100.00;102615.38;5211082;28;20030;-70
2021/12/21 10:06:10;;;;;;;23.00;11.77;;;;;;;-0.14;100.00;102616.88;5221292;28;20140;-69
2021/12/21 10:08:42;;;;;;;27.52;14.32;;;;;;;-0.12;100.00;102616.84;5220346;28;20022;-69
2021/12/21 10:11:20;;;;;;;24.42;12.73;;;;;;;-0.03;100.00;102607.31;5200626;28;20126;-69
2021/12/21 10:13:51;;;;;;;22.08;12.95;;;;;;;-0.05;100.00;102605.63;5218437;28;20117;-69
2021/12/21 10:16:22;;;;;;;23.50;13.45;;;;;;;-0.03;100.00;102611.63;5217689;28;20049;-71
2021/12/21 10:18:54;;;;;;;21.23;13.00;;;;;;;0.02;100.00;102611.56;5219936;28;20045;-70
2021/12/21 10:21:25;;;;;;;22.20;12.88;;;;;;;0.07;100.00;102613.19;5219549;28;20132;-70
2021/12/21 10:23:57;;;;;;;21.90;12.02;;;;;;;0.12;100.00;102614.00;5218532;28;20060;-70
2021/12/21 10:26:32;;;;;;;24.08;12.70;;;;;;;0.20;100.00;102603.59;5221201;28;20479;-70
2021/12/21 10:29:07;;;;;;;24.85;13.07;;;;;;;0.33;100.00;102596.53;5200511;28;20482;-70
2021/12/21 10:31:41;;;;;;;22.60;12.52;;;;;;;0.38;100.00;102594.72;5219872;28;20029;-72
2021/12/21 10:34:15;;;;;;;22.75;12.25;;;;;;;0.53;100.00;102601.38;5222381;28;20030;-70
2021/12/21 10:36:50;;;;;;;19.40;11.68;;;;;;;0.53;100.00;102602.28;5219446;28;20057;-70
2021/12/21 10:39:27;;;;;;;20.58;12.13;;;;;;;0.57;100.00;102585.00;5218531;28;20029;-70
2021/12/21 10:42:00;;;;;;;21.52;11.13;;;;;;;0.72;100.00;102588.22;5219378;28;20401;-71
2021/12/21 10:44:32;;;;;;;24.20;12.95;;;;;;;0.71;100.00;102593.38;5219492;28;20133;-70
2021/12/21 10:47:04;;;;;;;19.25;10.05;;;;;;;0.82;100.00;102588.06;5220826;28;20049;-70
2021/12/21 10:49:37;;;;;;;20.48;10.05;;;;;;;0.87;100.00;102587.13;5202008;28;20454;-70
2021/12/21 10:52:12;;;;;;;15.77;8.48;;;;;;;1.06;100.00;102589.38;5216293;28;20084;-70
2021/12/21 10:54:46;;;;;;;15.60;8.13;;;;;;;1.07;100.00;102585.94;5219784;28;20033;-71
2021/12/21 10:57:23;;;;;;;12.80;7.32;;;;;;;1.23;100.00;102589.09;5220076;28;20040;-70
2021/12/21 10:59:57;;;;;;;14.27;7.72;;;;;;;1.19;100.00;102589.13;5218741;28;20129;-70
2021/12/21 11:02:33;;;;;;;14.80;8.43;;;;;;;1.36;100.00;102587.97;5221882;28;20658;-71
2021/12/21 11:05:08;;;;;;;14.27;8.07;;;;;;;1.41;100.00;102588.75;5225072;28;20025;-72
2021/12/21 11:07:46;;;;;;;22.55;10.35;;;;;;;1.50;100.00;102588.56;5225530;28;20112;-71
2021/12/21 11:10:30;;;;;;;18.98;10.75;;;;;;;1.54;100.00;102589.38;5222896;28;20063;-72
2021/12/21 11:13:07;;;;;;;23.92;11.60;;;;;;;1.60;100.00;102587.53;5216239;28;20060;-71
2021/12/21 11:15:52;;;;;;;17.20;8.60;;;;;;;1.66;100.00;102581.38;5224203;28;20105;-71
2021/12/21 11:18:25;;;;;;;17.38;8.60;;;;;;;1.75;100.00;102578.63;5221776;28;20029;-70
2021/12/21 11:20:56;;;;;;;15.05;7.30;;;;;;;1.84;100.00;102577.59;5220775;28;20030;-71
2021/12/21 11:23:29;;;;;;;13.45;7.07;;;;;;;1.90;100.00;102575.72;5222189;28;20039;-71
2021/12/21 11:26:02;;;;;;;12.93;7.22;;;;;;;1.93;100.00;102564.47;5221481;28;20127;-70
2021/12/21 11:28:36;;;;;;;;;;;;;;;2.42;100.00;102563.38;5224603;28;20119;-73
2021/12/21 11:31:08;;;;;;;14.60;9.25;;;;;;;2.06;100.00;102558.16;5226536;28;19950;-71
2021/12/21 11:33:42;;;;;;;17.27;10.25;;;;;;;1.96;100.00;102546.31;5223991;28;20055;-71
2021/12/21 11:39:07;;;;;;;12.65;7.65;;;;;;;2.16;100.00;102535.53;5224299;28;20479;-71
2021/12/21 11:41:41;;;;;;;10.40;7.10;;;;;;;2.25;100.00;102512.06;5222819;28;20053;-71
2021/12/21 11:44:14;;;;;;;15.32;7.30;;;;;;;2.36;100.00;102511.81;5222903;28;20458;-71
2021/12/21 11:46:54;;;;;;;;;;;;;;;2.81;100.00;102529.69;5224705;28;20053;-72
2021/12/21 11:49:30;;;;;;;14.52;7.07;;;;;;;2.52;100.00;102531.25;5221239;28;20101;-71
2021/12/21 11:52:13;;;;;;;14.43;7.10;;;;;;;2.61;100.00;102528.44;5222521;28;20021;-71
2021/12/21 11:54:50;;;;;;;13.52;6.38;;;;;;;2.70;100.00;102531.69;5220658;28;20026;-72
2021/12/21 11:57:36;;;;;;;13.02;7.10;;;;;;;2.63;100.00;102518.88;5222061;28;20186;-71
2021/12/21 12:00:14;;;;;;;13.02;7.05;;;;;;;2.61;100.00;102525.84;5222191;28;20071;-71
2021/12/21 12:02:47;;;;;;;11.27;6.28;;;;;;;2.62;100.00;102526.69;5223566;28;20054;-71
2021/12/21 12:05:52;;;;;;;12.75;6.55;;;;;;;2.89;100.00;102515.66;5222569;28;20032;-71
2021/12/21 12:08:26;;;;;;;12.73;7.32;;;;;;;2.76;100.00;102522.00;5222869;28;20033;-71
2021/12/21 12:11:00;;;;;;;13.55;6.55;;;;;;;2.80;100.00;102518.44;5204119;28;20021;-72
2021/12/21 12:13:40;;;;;;;12.32;7.40;;;;;;;2.83;100.00;102514.94;5223698;28;20040;-71
2021/12/21 12:16:14;;;;;;;13.45;8.10;;;;;;;2.84;100.00;102516.63;5223712;28;20467;-72
2021/12/21 12:18:48;;;;;;;13.85;7.57;;;;;;;2.90;100.00;102500.97;5208400;28;20538;-72
2021/12/21 12:21:22;;;;;;;12.55;6.10;;;;;;;2.93;100.00;102499.16;5223233;28;20037;-72
2021/12/21 12:24:04;;;;;;;12.25;6.88;;;;;;;3.12;100.00;102502.09;5223460;28;20037;-72
2021/12/21 12:26:39;;;;;;;12.73;6.00;;;;;;;3.20;100.00;102507.06;5222492;28;20116;-72